Time;durP1;ratioP1;P1;durP2;ratioP2;P2;SDS_P1;SDS_P2;PMS_P1;PMS_P2;Temp;Humidity;BMP_temperature;BMP_pressure;BME280_temperature;BME280_humidity;BME280_pressure;Samples;Min_cycle;Max_cycle;Signal;HPM_P1;HPM_P2
2022/11/15 00:00:56;;;;;;;6.00;2.80;;;;;8.60;93802.00;;;;7394203;19;20148;-77
2022/11/15 00:03:30;;;;;;;3.63;2.60;;;;;8.70;93805.00;;;;7395089;19;20599;-78
2022/11/15 00:06:03;;;;;;;4.53;2.57;;;;;8.60;93802.00;;;;7399137;19;20146;-78
2022/11/15 00:08:44;;;;;;;6.67;3.63;;;;;8.70;93802.00;;;;7401801;19;20144;-77
2022/11/15 00:11:12;;;;;;;3.83;2.97;;;;;8.70;93796.00;;;;7403979;19;20467;-78
2022/11/15 00:13:46;;;;;;;2.87;2.57;;;;;8.70;93788.00;;;;7403422;19;20168;-74
2022/11/15 00:16:14;;;;;;;5.10;2.30;;;;;8.70;93795.00;;;;7404273;19;20147;-76
2022/11/15 00:18:41;;;;;;;5.57;2.63;;;;;8.60;93797.00;;;;7402406;19;20153;-77
2022/11/15 00:21:17;;;;;;;5.37;2.90;;;;;9.00;93795.00;;;;7402673;19;20600;-78
2022/11/15 00:23:45;;;;;;;4.10;3.10;;;;;8.90;93788.00;;;;7400736;19;20141;-76
2022/11/15 00:26:14;;;;;;;5.60;2.57;;;;;8.90;93792.00;;;;7403096;19;20133;-78
2022/11/15 00:28:50;;;;;;;4.30;2.40;;;;;8.70;93789.00;;;;7403319;19;20140;-78
2022/11/15 00:31:18;;;;;;;4.33;2.80;;;;;8.60;93781.00;;;;7403807;19;20195;-77
2022/11/15 00:33:45;;;;;;;4.83;2.60;;;;;8.70;93774.00;;;;7401744;19;20133;-77
2022/11/15 00:36:19;;;;;;;3.13;2.50;;;;;8.70;93776.00;;;;7403225;19;20152;-77
2022/11/15 00:38:47;;;;;;;3.00;2.50;;;;;8.70;93779.00;;;;7403244;19;20209;-77
2022/11/15 00:41:14;;;;;;;5.57;2.60;;;;;8.70;93776.00;;;;7401424;19;20129;-76
2022/11/15 00:43:48;;;;;;;3.60;2.50;;;;;8.80;93783.00;;;;7401860;19;20163;-77
2022/11/15 00:46:16;;;;;;;3.00;2.40;;;;;8.80;93777.00;;;;7401625;19;20552;-78
2022/11/15 00:48:43;;;;;;;4.40;2.70;;;;;8.70;93778.00;;;;7402944;19;20184;-78
2022/11/15 00:51:17;;;;;;;3.27;2.30;;;;;8.60;93776.00;;;;7401498;19;20620;-77
2022/11/15 00:53:45;;;;;;;3.00;2.30;;;;;8.40;93772.00;;;;7402667;19;20137;-76
2022/11/15 00:56:12;;;;;;;3.67;2.40;;;;;8.50;93774.00;;;;7401399;19;20152;-78
2022/11/15 00:58:46;;;;;;;3.57;2.20;;;;;8.70;93774.00;;;;7402532;19;20129;-77
2022/11/15 01:01:15;;;;;;;2.77;2.30;;;;;8.90;93766.00;;;;7400838;19;20604;-77
2022/11/15 01:03:42;;;;;;;3.50;2.40;;;;;9.10;93768.00;;;;7401420;19;20493;-76
2022/11/15 01:06:16;;;;;;;5.63;2.60;;;;;9.10;93764.00;;;;7403224;19;20146;-76
2022/11/15 01:08:50;;;;;;;5.77;2.57;;;;;9.10;93766.00;;;;7399327;19;20168;-76
2022/11/15 01:11:31;;;;;;;5.77;2.37;;;;;9.10;93762.00;;;;7401376;19;20152;-77
2022/11/15 01:13:58;;;;;;;5.43;2.40;;;;;9.40;93760.00;;;;7401334;19;20507;-76
2022/11/15 01:16:33;;;;;;;3.73;2.17;;;;;9.30;93757.00;;;;7399344;19;20129;-77
2022/11/15 01:19:00;;;;;;;3.07;2.40;;;;;9.30;93756.00;;;;7399418;19;20227;-78
2022/11/15 01:21:27;;;;;;;4.97;2.53;;;;;9.10;93755.00;;;;7398525;19;20164;-78
2022/11/15 01:24:01;;;;;;;4.73;2.27;;;;;9.00;93757.00;;;;7399365;19;20607;-78
2022/11/15 01:26:29;;;;;;;2.73;2.00;;;;;8.80;93758.00;;;;7400403;19;20164;-77
2022/11/15 01:28:56;;;;;;;3.50;2.20;;;;;8.90;93752.00;;;;7401693;19;20596;-78
2022/11/15 01:31:30;;;;;;;5.23;2.37;;;;;9.30;93764.00;;;;7400516;19;20180;-77
2022/11/15 01:33:58;;;;;;;6.43;2.10;;;;;9.20;93758.00;;;;7400549;19;20620;-77
2022/11/15 01:36:25;;;;;;;4.53;2.33;;;;;9.50;93750.00;;;;7400180;19;20587;-77
2022/11/15 01:39:00;;;;;;;2.57;2.07;;;;;9.50;93750.00;;;;7400565;19;20161;-76
2022/11/15 01:41:33;;;;;;;3.13;2.20;;;;;9.40;93741.00;;;;7400520;19;20500;-78
2022/11/15 01:44:34;;;;;;;4.83;2.33;;;;;9.50;93748.00;;;;7399553;19;20200;-79
2022/11/15 01:47:06;;;;;;;3.90;2.20;;;;;9.10;93750.00;;;;7400748;19;20133;-77
2022/11/15 01:49:51;;;;;;;4.07;2.13;;;;;9.10;93751.00;;;;7398655;19;20156;-76
2022/11/15 01:52:22;;;;;;;3.87;2.60;;;;;9.00;93751.00;;;;7398426;19;20128;-79
2022/11/15 01:55:34;;;;;;;3.57;2.30;;;;;8.70;93750.00;;;;7399193;19;20136;-79
2022/11/15 01:58:05;;;;;;;5.43;2.67;;;;;8.50;93740.00;;;;7396488;19;20659;-79
2022/11/15 02:00:39;;;;;;;3.50;2.33;;;;;8.30;93734.00;;;;7399043;19;20188;-73
2022/11/15 02:03:07;;;;;;;3.37;2.00;;;;;8.50;93735.00;;;;7397598;19;20153;-73
2022/11/15 02:05:36;;;;;;;3.47;2.53;;;;;8.50;93730.00;;;;7398589;19;20162;-74
2022/11/15 02:08:19;;;;;;;3.43;2.47;;;;;8.70;93738.00;;;;7396526;19;20635;-74
2022/11/15 02:10:54;;;;;;;3.23;2.43;;;;;8.60;93735.00;;;;7397332;19;20160;-74
2022/11/15 02:13:28;;;;;;;5.73;2.67;;;;;8.30;93730.00;;;;7398208;19;20620;-73
2022/11/15 02:16:19;;;;;;;2.60;2.40;;;;;8.40;93725.00;;;;7398041;19;20144;-73
2022/11/15 02:19:07;;;;;;;3.40;2.43;;;;;8.60;93712.00;;;;7398408;19;20212;-74
2022/11/15 02:21:48;;;;;;;3.33;2.40;;;;;8.50;93720.00;;;;7396942;19;20156;-73
2022/11/15 02:24:34;;;;;;;3.70;2.40;;;;;8.80;93721.00;;;;7398534;19;20216;-73
2022/11/15 02:27:34;;;;;;;3.27;2.50;;;;;8.60;93721.00;;;;7395651;19;20144;-73
2022/11/15 02:30:42;;;;;;;4.27;2.33;;;;;8.80;93711.00;;;;7399860;19;20129;-74
2022/11/15 02:33:37;;;;;;;3.00;2.57;;;;;8.90;93713.00;;;;7395751;19;20518;-73
2022/11/15 02:36:30;;;;;;;7.17;2.33;;;;;9.20;93708.00;;;;7397386;19;20573;-73
2022/11/15 02:39:14;;;;;;;3.30;2.47;;;;;9.20;93711.00;;;;7386226;19;20204;-74
2022/11/15 02:43:56;;;;;;;5.30;2.40;;;;;8.70;93714.00;;;;7395132;19;20177;-73
2022/11/15 02:45:00;;;;;;;2.30;2.10;;;;;8.70;93699.00;;;;7397122;19;20518;-73
2022/11/15 02:47:50;;;;;;;6.63;3.20;;;;;8.70;93696.00;;;;7397333;19;20382;-73
2022/11/15 02:50:20;;;;;;;5.40;2.50;;;;;8.60;93689.00;;;;7396420;19;20136;-72
2022/11/15 02:52:54;;;;;;;6.33;2.73;;;;;8.80;93684.00;;;;7397650;19;20587;-73
2022/11/15 02:55:34;;;;;;;7.30;2.57;;;;;8.70;93683.00;;;;7396660;19;20157;-72
2022/11/15 02:58:26;;;;;;;3.60;2.50;;;;;8.50;93675.00;;;;7394552;19;20156;-73
2022/11/15 03:01:12;;;;;;;4.43;2.77;;;;;8.60;93681.00;;;;7395409;19;20524;-72
2022/11/15 03:04:15;;;;;;;3.77;2.50;;;;;8.50;93687.00;;;;7396434;19;20192;-72
2022/11/15 03:07:01;;;;;;;3.30;2.60;;;;;8.70;93688.00;;;;7397273;19;20469;-73
2022/11/15 03:09:52;;;;;;;4.87;2.70;;;;;8.90;93684.00;;;;7391606;19;20153;-73
2022/11/15 03:12:34;;;;;;;5.47;2.47;;;;;8.90;93678.00;;;;7395722;19;20152;-73
2022/11/15 03:15:28;;;;;;;3.00;2.63;;;;;9.10;93672.00;;;;7395495;19;20136;-72
2022/11/15 03:18:00;;;;;;;3.47;2.30;;;;;9.20;93672.00;;;;7395689;19;20141;-73
2022/11/15 03:20:36;;;;;;;4.50;2.23;;;;;9.10;93660.00;;;;7395159;19;20184;-74
2022/11/15 03:23:10;;;;;;;3.80;2.63;;;;;9.40;93657.00;;;;7394970;19;20133;-75
2022/11/15 03:25:48;;;;;;;3.47;2.73;;;;;9.30;93670.00;;;;7395737;19;20604;-73
2022/11/15 03:28:33;;;;;;;3.90;2.73;;;;;9.30;93667.00;;;;7393883;19;20140;-75
2022/11/15 03:33:58;;;;;;;3.27;2.27;;;;;9.30;93652.00;;;;7395511;19;20160;-74
2022/11/15 03:36:34;;;;;;;2.73;2.00;;;;;9.20;93652.00;;;;7395000;19;20223;-72
2022/11/15 03:39:06;;;;;;;2.47;1.97;;;;;9.20;93645.00;;;;7395127;19;20628;-72
2022/11/15 03:42:21;;;;;;;4.30;1.93;;;;;9.20;93643.00;;;;7393437;19;20140;-73
2022/11/15 03:45:08;;;;;;;2.97;2.20;;;;;9.20;93641.00;;;;7394342;19;20164;-72
2022/11/15 03:47:54;;;;;;;8.13;2.10;;;;;9.10;93643.00;;;;7389385;19;20153;-74
2022/11/15 03:50:24;;;;;;;6.30;2.30;;;;;9.10;93650.00;;;;7394246;19;20125;-73
2022/11/15 03:52:58;;;;;;;6.90;2.40;;;;;9.00;93647.00;;;;7383981;19;20152;-73
2022/11/15 03:55:26;;;;;;;5.67;2.30;;;;;9.00;93654.00;;;;7395036;19;20152;-73
2022/11/15 03:57:59;;;;;;;6.83;2.30;;;;;8.80;93649.00;;;;7394348;19;20232;-73
2022/11/15 04:00:33;;;;;;;3.97;2.67;;;;;8.40;93658.00;;;;7391652;19;20169;-73
2022/11/15 04:03:01;;;;;;;6.90;2.23;;;;;8.40;93652.00;;;;7394234;19;20145;-73
2022/11/15 04:05:28;;;;;;;3.27;2.00;;;;;8.40;93645.00;;;;7395249;19;20843;-73
2022/11/15 04:08:16;;;;;;;5.00;2.50;;;;;8.20;93637.00;;;;7393202;19;20178;-73
2022/11/15 04:10:51;;;;;;;3.00;2.33;;;;;8.00;93640.00;;;;7393871;19;20160;-73
2022/11/15 04:13:25;;;;;;;5.13;2.33;;;;;7.80;93640.00;;;;7395214;19;20140;-73
2022/11/15 04:15:52;;;;;;;4.80;2.33;;;;;7.80;93647.00;;;;7395907;19;20155;-72
2022/11/15 04:18:20;;;;;;;4.50;2.20;;;;;8.00;93635.00;;;;7394685;19;20144;-74
2022/11/15 04:26:28;;;;;;;4.73;2.20;;;;;8.80;93623.00;;;;7392358;19;20157;-74
2022/11/15 04:31:48;;;;;;;3.87;2.23;;;;;9.20;93613.00;;;;7393132;19;20517;-73
2022/11/15 04:34:16;;;;;;;2.93;2.03;;;;;9.30;93615.00;;;;7394536;19;20224;-73
2022/11/15 04:39:35;;;;;;;3.40;2.00;;;;;9.40;93607.00;;;;7395053;19;20469;-72
2022/11/15 04:42:03;;;;;;;4.33;2.00;;;;;9.60;93605.00;;;;7394508;19;20188;-73
2022/11/15 04:44:31;;;;;;;2.50;1.73;;;;;9.50;93612.00;;;;7394918;19;20200;-74
2022/11/15 04:47:05;;;;;;;2.17;1.73;;;;;9.70;93604.00;;;;7394227;19;20156;-73
2022/11/15 04:49:33;;;;;;;2.77;1.70;;;;;9.70;93596.00;;;;7393591;19;20576;-73
2022/11/15 04:52:00;;;;;;;3.07;1.77;;;;;9.70;93601.00;;;;7390768;19;20125;-73
2022/11/15 04:54:34;;;;;;;3.37;1.70;;;;;9.70;93602.00;;;;7400229;19;20125;-74
2022/11/15 04:57:02;;;;;;;2.07;1.80;;;;;9.50;93599.00;;;;7400715;19;20641;-73
2022/11/15 04:59:29;;;;;;;3.23;2.00;;;;;9.70;93589.00;;;;7400295;19;20167;-73
2022/11/15 05:02:03;;;;;;;2.43;1.90;;;;;9.80;93589.00;;;;7400004;19;20204;-74
2022/11/15 05:04:31;;;;;;;2.83;1.93;;;;;10.00;93593.00;;;;7400213;19;20148;-74
2022/11/15 05:06:58;;;;;;;2.00;1.70;;;;;9.90;93592.00;;;;7399360;19;20156;-74
2022/11/15 05:09:39;;;;;;;5.00;1.90;;;;;9.90;93592.00;;;;7397889;19;20164;-74
2022/11/15 05:12:06;;;;;;;2.65;1.55;;;;;9.80;93595.00;;;;7401222;19;20140;-76
2022/11/15 05:14:40;;;;;;;3.20;1.60;;;;;9.80;93585.00;;;;7399314;19;20164;-73
2022/11/15 05:17:08;;;;;;;1.70;1.53;;;;;10.00;93588.00;;;;7399730;19;20655;-74
2022/11/15 05:19:35;;;;;;;3.57;1.47;;;;;9.80;93582.00;;;;7401318;19;20133;-73
2022/11/15 05:22:09;;;;;;;2.53;1.67;;;;;9.80;93580.00;;;;7399719;19;20147;-73
2022/11/15 05:24:37;;;;;;;3.20;1.30;;;;;9.90;93578.00;;;;7400126;19;20527;-74
2022/11/15 05:27:04;;;;;;;1.67;1.43;;;;;10.10;93583.00;;;;7400054;19;20180;-73
2022/11/15 05:29:39;;;;;;;3.40;1.50;;;;;10.10;93584.00;;;;7399780;19;20490;-74
2022/11/15 05:32:08;;;;;;;1.43;1.13;;;;;10.20;93576.00;;;;7397322;19;20188;-74
2022/11/15 05:34:35;;;;;;;1.60;1.27;;;;;10.10;93573.00;;;;7398845;19;20129;-73
2022/11/15 05:37:09;;;;;;;1.40;1.20;;;;;10.10;93571.00;;;;7400121;19;20583;-74
2022/11/15 05:39:37;;;;;;;1.50;1.17;;;;;10.10;93555.00;;;;7398925;19;20625;-74
2022/11/15 05:42:10;;;;;;;1.37;1.20;;;;;9.90;93534.00;;;;7398364;19;20188;-74
2022/11/15 05:44:48;;;;;;;1.90;1.23;;;;;10.10;93530.00;;;;7400818;19;20137;-73
2022/11/15 05:47:24;;;;;;;2.33;1.03;;;;;10.10;93548.00;;;;7399005;19;20686;-74
2022/11/15 05:49:58;;;;;;;1.58;1.10;;;;;10.00;93555.00;;;;7395455;19;20148;-74
2022/11/15 05:52:30;;;;;;;2.33;1.38;;;;;9.90;93553.00;;;;7399498;19;20141;-74
2022/11/15 05:55:01;;;;;;;3.80;1.57;;;;;9.80;93558.00;;;;7398453;19;20484;-73
2022/11/15 05:57:37;;;;;;;3.75;1.10;;;;;9.60;93556.00;;;;7398177;19;20664;-74
2022/11/15 06:00:05;;;;;;;1.20;1.10;;;;;9.30;93569.00;;;;7399488;19;20501;-75
2022/11/15 06:02:33;;;;;;;2.40;1.17;;;;;9.50;93570.00;;;;7396948;19;20149;-75
2022/11/15 06:05:07;;;;;;;1.43;1.27;;;;;9.30;93573.00;;;;7397957;19;20164;-74
2022/11/15 06:07:41;;;;;;;2.40;1.33;;;;;8.90;93576.00;;;;7398050;19;20543;-73
2022/11/15 06:10:22;;;;;;;2.00;1.30;;;;;8.50;93579.00;;;;7397773;19;20137;-74
2022/11/15 06:13:00;;;;;;;2.75;2.00;;;;;8.30;93588.00;;;;7396943;19;20160;-72
2022/11/15 06:15:34;;;;;;;2.47;1.93;;;;;7.80;93582.00;;;;7394114;19;20624;-73
2022/11/15 06:18:02;;;;;;;2.67;1.83;;;;;7.60;93590.00;;;;7396102;19;20160;-73
2022/11/15 06:20:30;;;;;;;2.37;1.90;;;;;7.30;93591.00;;;;7395674;19;20156;-73
2022/11/15 06:23:05;;;;;;;2.53;2.10;;;;;7.00;93605.00;;;;7397046;19;20144;-72
2022/11/15 06:25:32;;;;;;;3.63;3.07;;;;;7.00;93596.00;;;;7396002;19;20145;-73
2022/11/15 06:28:00;;;;;;;5.80;2.90;;;;;7.00;93590.00;;;;7397729;19;20152;-73
2022/11/15 06:30:35;;;;;;;3.03;2.30;;;;;6.80;93596.00;;;;7396788;19;20160;-73
2022/11/15 06:33:05;;;;;;;4.20;2.33;;;;;6.80;93597.00;;;;7394628;19;20652;-72
2022/11/15 06:35:35;;;;;;;5.87;2.63;;;;;6.80;93587.00;;;;7397451;19;20156;-73
2022/11/15 06:38:10;;;;;;;7.10;3.10;;;;;7.10;93596.00;;;;7393729;19;20164;-73
2022/11/15 06:40:39;;;;;;;3.60;2.50;;;;;7.30;93593.00;;;;7392882;19;20164;-73
2022/11/15 06:43:07;;;;;;;3.33;2.47;;;;;7.40;93601.00;;;;7395292;19;20132;-73
2022/11/15 06:45:41;;;;;;;2.67;2.30;;;;;7.70;93586.00;;;;7396531;19;20164;-73
2022/11/15 06:48:09;;;;;;;5.40;2.60;;;;;7.90;93589.00;;;;7394586;19;20220;-72
2022/11/15 06:50:37;;;;;;;2.63;2.07;;;;;8.30;93594.00;;;;7397833;19;20129;-73
2022/11/15 06:53:10;;;;;;;3.57;2.53;;;;;8.20;93603.00;;;;7396250;19;20159;-72
2022/11/15 06:55:38;;;;;;;9.90;2.20;;;;;8.40;93604.00;;;;7396573;19;20149;-71
2022/11/15 06:58:05;;;;;;;4.73;2.47;;;;;8.30;93609.00;;;;7396348;19;20542;-73
2022/11/15 07:00:40;;;;;;;2.90;2.13;;;;;8.30;93598.00;;;;7395143;19;20476;-73
2022/11/15 07:03:08;;;;;;;2.40;2.07;;;;;8.40;93601.00;;;;7393936;19;20148;-72
2022/11/15 07:05:36;;;;;;;3.63;2.10;;;;;8.70;93600.00;;;;7397239;19;20149;-71
2022/11/15 07:08:17;;;;;;;3.00;1.90;;;;;8.80;93590.00;;;;7395285;19;20172;-71
2022/11/15 07:10:51;;;;;;;3.00;2.20;;;;;8.90;93599.00;;;;7394880;19;20129;-72
2022/11/15 07:13:26;;;;;;;3.63;2.20;;;;;9.20;93584.00;;;;7395774;19;20144;-73
2022/11/15 07:15:54;;;;;;;2.10;1.70;;;;;9.40;93584.00;;;;7393415;19;20141;-71
2022/11/15 07:18:23;;;;;;;5.07;2.15;;;;;9.40;93586.00;;;;7396265;19;20116;-72
2022/11/15 07:21:02;;;;;;;2.65;1.80;;;;;9.90;93586.00;;;;7395567;19;20483;-72
2022/11/15 07:23:30;;;;;;;4.87;1.93;;;;;9.90;93600.00;;;;7395106;19;20137;-72
2022/11/15 07:25:58;;;;;;;4.22;2.33;;;;;9.80;93586.00;;;;7393901;19;20136;-71
2022/11/15 07:28:33;;;;;;;1.73;1.63;;;;;9.80;93584.00;;;;7393586;19;20156;-72
2022/11/15 07:31:06;;;;;;;3.05;1.67;;;;;9.80;93582.00;;;;7394612;19;20157;-71
2022/11/15 07:33:40;;;;;;;2.13;1.60;;;;;9.90;93583.00;;;;7395039;19;20158;-71
2022/11/15 07:36:08;;;;;;;2.75;1.40;;;;;10.10;93588.00;;;;7394996;19;20607;-73
2022/11/15 07:38:36;;;;;;;2.70;1.45;;;;;10.20;93585.00;;;;7394266;19;20152;-73
2022/11/15 07:41:10;;;;;;;2.05;1.85;;;;;10.20;93588.00;;;;7394005;19;20165;-72
2022/11/15 07:43:38;;;;;;;5.18;1.55;;;;;10.30;93575.00;;;;7394077;19;20152;-71
2022/11/15 07:46:08;;;;;;;2.53;1.80;;;;;10.40;93586.00;;;;7393674;19;20710;-71
2022/11/15 07:48:42;;;;;;;3.33;1.60;;;;;10.30;93585.00;;;;7391517;19;20186;-72
2022/11/15 07:51:14;;;;;;;1.77;1.42;;;;;10.40;93584.00;;;;7393972;19;20140;-72
2022/11/15 07:53:43;;;;;;;1.75;1.48;;;;;10.70;93584.00;;;;7394448;19;20516;-72
2022/11/15 07:56:17;;;;;;;3.80;1.50;;;;;11.10;93582.00;;;;7393528;19;20156;-71
2022/11/15 07:58:46;;;;;;;1.75;1.45;;;;;11.20;93579.00;;;;7389682;19;20152;-73
2022/11/15 08:01:23;;;;;;;2.20;1.75;;;;;11.60;93581.00;;;;7392658;19;20144;-73
2022/11/15 08:03:57;;;;;;;2.75;1.55;;;;;11.90;93571.00;;;;7391907;19;20147;-74
2022/11/15 08:06:24;;;;;;;1.88;1.38;;;;;12.20;93576.00;;;;7393351;19;20616;-72
2022/11/15 08:08:52;;;;;;;1.38;1.27;;;;;12.20;93581.00;;;;7392412;19;20157;-72
2022/11/15 08:11:32;;;;;;;2.15;1.33;;;;;12.00;93578.00;;;;7393603;19;20152;-72
2022/11/15 08:14:02;;;;;;;1.40;1.27;;;;;12.30;93578.00;;;;7393127;19;20166;-72
2022/11/15 08:16:37;;;;;;;1.42;1.33;;;;;12.20;93580.00;;;;7393373;19;20192;-72
2022/11/15 08:19:04;;;;;;;1.48;1.27;;;;;12.00;93565.00;;;;7393729;19;20162;-71
2022/11/15 08:21:32;;;;;;;2.05;1.33;;;;;12.00;93571.00;;;;7393643;19;20628;-71
2022/11/15 08:24:09;;;;;;;2.17;1.30;;;;;11.90;93570.00;;;;7392815;19;20160;-71
2022/11/15 08:26:37;;;;;;;2.35;1.30;;;;;12.40;93565.00;;;;7393175;19;20212;-72
2022/11/15 08:29:04;;;;;;;1.92;1.50;;;;;11.90;93569.00;;;;7401148;19;20648;-71
2022/11/15 08:31:39;;;;;;;1.63;1.30;;;;;12.10;93567.00;;;;7400219;19;20167;-73
2022/11/15 08:34:07;;;;;;;1.42;1.30;;;;;12.40;93557.00;;;;7397522;19;20168;-70
2022/11/15 08:36:35;;;;;;;1.50;1.20;;;;;12.40;93554.00;;;;7396675;19;20249;-73
2022/11/15 08:39:13;;;;;;;1.55;1.45;;;;;12.20;93557.00;;;;7399174;19;20163;-72
2022/11/15 08:41:41;;;;;;;1.95;1.30;;;;;12.30;93564.00;;;;7397013;19;20212;-73
2022/11/15 08:44:08;;;;;;;1.48;1.38;;;;;12.20;93555.00;;;;7395446;19;20152;-72
2022/11/15 08:46:45;;;;;;;1.42;1.33;;;;;13.00;93551.00;;;;7397581;19;20559;-70
2022/11/15 08:49:12;;;;;;;1.20;1.10;;;;;13.40;93552.00;;;;7395099;19;20136;-70
2022/11/15 08:51:40;;;;;;;1.23;1.13;;;;;13.60;93551.00;;;;7400259;19;20178;-71
2022/11/15 08:54:13;;;;;;;1.40;1.30;;;;;13.40;93543.00;;;;7399796;19;20137;-71
2022/11/15 08:56:41;;;;;;;2.00;1.25;;;;;14.00;93539.00;;;;7397912;19;20165;-71
2022/11/15 08:59:08;;;;;;;1.88;1.27;;;;;14.80;93538.00;;;;7400139;19;20200;-71
2022/11/15 09:01:46;;;;;;;1.33;1.23;;;;;14.90;93540.00;;;;7399315;19;20145;-71
2022/11/15 09:04:13;;;;;;;4.60;1.40;;;;;15.00;93536.00;;;;7396340;19;20157;-71
2022/11/15 09:06:41;;;;;;;2.08;1.42;;;;;14.80;93533.00;;;;7397359;19;20177;-71
2022/11/15 09:09:28;;;;;;;2.30;1.27;;;;;15.10;93534.00;;;;7397507;19;20520;-71
2022/11/15 09:12:03;;;;;;;1.65;1.20;;;;;15.70;93528.00;;;;7399235;19;20160;-71
2022/11/15 09:14:38;;;;;;;3.90;1.40;;;;;15.80;93527.00;;;;7399513;19;20147;-71
2022/11/15 09:17:08;;;;;;;3.25;1.40;;;;;16.00;93525.00;;;;7400034;19;20137;-72
2022/11/15 09:19:38;;;;;;;2.10;1.27;;;;;15.50;93538.00;;;;7399111;19;20612;-70
2022/11/15 09:22:12;;;;;;;3.08;1.30;;;;;14.60;93535.00;;;;7399385;19;20156;-71
2022/11/15 09:24:41;;;;;;;2.65;1.10;;;;;14.60;93546.00;;;;7389196;19;20636;-72
2022/11/15 09:27:08;;;;;;;1.95;1.42;;;;;14.50;93532.00;;;;7395597;19;20129;-72
2022/11/15 09:29:42;;;;;;;1.40;1.02;;;;;14.60;93540.00;;;;7399202;19;20512;-72
2022/11/15 09:32:12;;;;;;;1.70;1.33;;;;;14.00;93535.00;;;;7397771;19;20272;-71
2022/11/15 09:34:40;;;;;;;1.50;1.27;;;;;14.00;93541.00;;;;7397507;19;20129;-72
2022/11/15 09:37:15;;;;;;;3.92;1.30;;;;;13.90;93535.00;;;;7396570;19;20515;-72
2022/11/15 09:39:43;;;;;;;2.63;1.20;;;;;13.80;93534.00;;;;7397363;19;20231;-71
2022/11/15 09:42:41;;;;;;;4.13;1.40;;;;;14.00;93536.00;;;;7399272;19;20146;-72
2022/11/15 09:45:19;;;;;;;1.60;1.45;;;;;14.30;93528.00;;;;7396989;19;20129;-71
2022/11/15 09:48:17;;;;;;;3.47;1.33;;;;;14.90;93522.00;;;;7389791;19;20530;-72
2022/11/15 09:50:58;;;;;;;1.30;1.20;;;;;16.10;93526.00;;;;7395396;19;20665;-72
2022/11/15 09:53:30;;;;;;;1.88;1.40;;;;;16.10;93542.00;;;;7396895;19;20767;-72
2022/11/15 09:56:31;;;;;;;1.27;0.93;;;;;15.30;93528.00;;;;7396611;19;20145;-72
2022/11/15 09:59:08;;;;;;;1.38;1.10;;;;;14.70;93535.00;;;;7398846;19;20178;-70
2022/11/15 10:02:02;;;;;;;1.15;1.02;;;;;14.10;93531.00;;;;7395691;19;20224;-71
2022/11/15 10:04:31;;;;;;;1.15;1.05;;;;;13.90;93521.00;;;;7396632;19;20145;-71
2022/11/15 10:07:26;;;;;;;1.45;1.20;;;;;14.10;93526.00;;;;7394461;19;20674;-71
2022/11/15 10:10:08;;;;;;;1.15;1.05;;;;;14.00;93520.00;;;;7392944;19;20172;-72
2022/11/15 10:12:48;;;;;;;1.00;1.00;;;;;13.70;93523.00;;;;7395999;19;20144;-72
2022/11/15 10:15:23;;;;;;;2.03;1.23;;;;;13.60;93524.00;;;;7397409;19;20508;-73
2022/11/15 10:18:17;;;;;;;0.85;0.85;;;;;13.40;93525.00;;;;7397699;19;20137;-72
2022/11/15 10:20:59;;;;;;;2.03;1.02;;;;;13.80;93521.00;;;;7397496;19;20136;-72
2022/11/15 10:23:33;;;;;;;1.42;1.00;;;;;13.60;93515.00;;;;7395867;19;20591;-71
2022/11/15 10:26:01;;;;;;;3.10;1.10;;;;;13.60;93512.00;;;;7396716;19;20144;-70
2022/11/15 10:28:33;;;;;;;1.63;1.02;;;;;13.60;93518.00;;;;7397221;19;20132;-71
2022/11/15 10:31:27;;;;;;;0.90;0.88;;;;;13.60;93505.00;;;;7397227;19;20217;-72
2022/11/15 10:34:14;;;;;;;1.60;0.95;;;;;13.40;93512.00;;;;7395960;19;20180;-73
2022/11/15 10:36:57;;;;;;;1.85;1.00;;;;;13.60;93505.00;;;;7393577;19;20159;-72
2022/11/15 10:39:25;;;;;;;2.55;1.20;;;;;13.30;93497.00;;;;7397335;19;20188;-72
2022/11/15 10:42:26;;;;;;;0.93;0.80;;;;;13.50;93507.00;;;;7393330;19;20187;-72
2022/11/15 10:44:54;;;;;;;1.08;0.82;;;;;13.40;93509.00;;;;7391893;19;20156;-71
2022/11/15 10:47:31;;;;;;;0.88;0.70;;;;;13.10;93500.00;;;;7394956;19;20470;-73
2022/11/15 10:50:32;;;;;;;1.65;1.00;;;;;13.10;93498.00;;;;7390619;19;20251;-73
2022/11/15 10:53:28;;;;;;;1.23;0.88;;;;;13.10;93497.00;;;;7396241;19;20143;-72
2022/11/15 10:56:00;;;;;;;2.78;1.00;;;;;13.00;93502.00;;;;7396330;19;20153;-73
2022/11/15 10:58:58;;;;;;;1.92;1.00;;;;;12.90;93501.00;;;;7395036;19;20144;-72
2022/11/15 11:01:29;;;;;;;2.10;0.93;;;;;12.90;93497.00;;;;7395805;19;20133;-72
2022/11/15 11:04:06;;;;;;;1.13;0.88;;;;;12.90;93488.00;;;;7394040;19;20609;-73
2022/11/15 11:06:55;;;;;;;2.35;0.90;;;;;13.00;93482.00;;;;7393292;19;20153;-73
2022/11/15 11:09:45;;;;;;;1.50;0.88;;;;;12.90;93471.00;;;;7393917;19;20168;-71
2022/11/15 11:12:14;;;;;;;1.20;0.93;;;;;13.20;93476.00;;;;7394225;19;20527;-72
2022/11/15 11:14:49;;;;;;;1.17;0.70;;;;;13.30;93472.00;;;;7394926;19;20160;-72
2022/11/15 11:17:46;;;;;;;1.20;0.80;;;;;13.50;93458.00;;;;7394744;19;20151;-73
2022/11/15 11:20:41;;;;;;;1.30;0.98;;;;;13.60;93452.00;;;;7395124;19;20618;-71
2022/11/15 11:23:24;;;;;;;0.93;0.93;;;;;13.80;93441.00;;;;7395131;19;20149;-72
2022/11/15 11:26:03;;;;;;;2.72;0.90;;;;;13.90;93429.00;;;;7395236;19;20159;-72
2022/11/15 11:28:56;;;;;;;1.23;0.88;;;;;14.20;93434.00;;;;7394666;19;20207;-72
2022/11/15 11:32:01;;;;;;;2.70;0.90;;;;;14.30;93434.00;;;;7396568;19;20596;-71
2022/11/15 11:34:47;;;;;;;1.05;0.50;;;;;13.80;93434.00;;;;7395639;19;20216;-73
2022/11/15 11:37:36;;;;;;;0.98;0.70;;;;;14.10;93437.00;;;;7393947;19;20181;-72
2022/11/15 11:40:36;;;;;;;1.60;0.70;;;;;13.90;93430.00;;;;7394469;19;20596;-72
2022/11/15 11:43:36;;;;;;;0.43;0.43;;;;;13.90;93425.00;;;;7390299;19;20124;-73
2022/11/15 11:46:14;;;;;;;0.70;0.57;;;;;13.80;93421.00;;;;7393749;19;20615;-71
2022/11/15 11:49:12;;;;;;;2.33;0.70;;;;;13.80;93426.00;;;;7393964;19;20148;-72
2022/11/15 11:52:15;;;;;;;0.60;0.55;;;;;13.50;93420.00;;;;7392969;19;20152;-73
2022/11/15 11:54:59;;;;;;;0.77;0.65;;;;;13.70;93414.00;;;;7394992;19;20204;-72
2022/11/15 11:57:52;;;;;;;0.40;0.40;;;;;13.70;93417.00;;;;7391274;19;20496;-72
2022/11/15 12:00:33;;;;;;;0.60;0.60;;;;;13.70;93422.00;;;;7393557;19;20141;-72
2022/11/15 12:03:40;;;;;;;0.50;0.50;;;;;13.50;93414.00;;;;7400823;19;20602;-72
2022/11/15 12:06:32;;;;;;;0.57;0.57;;;;;13.30;93414.00;;;;7398919;19;20153;-73
2022/11/15 12:09:18;;;;;;;0.70;0.70;;;;;13.40;93399.00;;;;7398451;19;20169;-71
2022/11/15 12:12:02;;;;;;;0.75;0.45;;;;;13.30;93400.00;;;;7403775;19;20137;-73
2022/11/15 12:14:54;;;;;;;0.70;0.70;;;;;13.60;93389.00;;;;7401251;19;20158;-73
2022/11/15 12:17:31;;;;;;;0.50;0.50;;;;;13.60;93393.00;;;;7400143;19;20125;-72
2022/11/15 12:20:03;;;;;;;0.40;0.40;;;;;13.60;93385.00;;;;7402215;19;20139;-73
2022/11/15 12:23:15;;;;;;;0.60;0.60;;;;;13.60;93395.00;;;;7399805;19;20161;-72
2022/11/15 12:25:49;;;;;;;0.43;0.40;;;;;13.80;93390.00;;;;7398408;19;20141;-72
2022/11/15 12:28:50;;;;;;;1.45;0.68;;;;;14.00;93385.00;;;;7401732;19;20131;-72
2022/11/15 12:31:34;;;;;;;0.82;0.60;;;;;14.00;93380.00;;;;7402475;19;20642;-72
2022/11/15 12:34:21;;;;;;;0.77;0.60;;;;;13.80;93377.00;;;;7400823;19;20523;-72
2022/11/15 12:37:01;;;;;;;0.93;0.60;;;;;13.80;93376.00;;;;7399882;19;20156;-72
2022/11/15 12:40:22;;;;;;;0.50;0.50;;;;;13.80;93380.00;;;;7399091;19;20524;-71
2022/11/15 12:43:51;;;;;;;0.45;0.45;;;;;13.80;93377.00;;;;7401243;19;20153;-72
2022/11/15 12:46:29;;;;;;;0.80;0.60;;;;;13.80;93369.00;;;;7397231;19;20644;-73
2022/11/15 12:49:10;;;;;;;0.57;0.57;;;;;13.80;93357.00;;;;7401132;19;20132;-72
2022/11/15 12:51:47;;;;;;;0.57;0.55;;;;;14.10;93350.00;;;;7399600;19;21198;-72
2022/11/15 12:54:24;;;;;;;0.60;0.60;;;;;14.50;93352.00;;;;7399096;19;20484;-72
2022/11/15 12:57:19;;;;;;;2.50;0.68;;;;;14.80;93347.00;;;;7400387;19;20807;-72
2022/11/15 12:59:59;;;;;;;0.70;0.70;;;;;14.70;93336.00;;;;7399369;19;20613;-71
2022/11/15 13:02:39;;;;;;;0.75;0.60;;;;;14.70;93335.00;;;;7398702;19;20702;-71
2022/11/15 13:05:30;;;;;;;1.35;0.70;;;;;14.60;93332.00;;;;7399793;19;20176;-71
2022/11/15 13:08:08;;;;;;;0.38;0.38;;;;;14.50;93329.00;;;;7398210;19;20145;-71
2022/11/15 13:10:42;;;;;;;0.68;0.65;;;;;14.20;93325.00;;;;7395669;19;20160;-72
2022/11/15 13:13:44;;;;;;;1.02;0.60;;;;;14.10;93319.00;;;;7396028;19;20159;-71
2022/11/15 13:16:20;;;;;;;1.08;0.60;;;;;13.80;93326.00;;;;7398574;19;20125;-72
2022/11/15 13:18:54;;;;;;;0.80;0.80;;;;;13.70;93325.00;;;;7398896;19;20207;-73
2022/11/15 13:24:18;;;;;;;1.65;0.85;;;;;13.30;93318.00;;;;7398188;19;20157;-71
2022/11/15 13:26:46;;;;;;;0.80;0.80;;;;;13.30;93309.00;;;;7392574;19;20176;-73
2022/11/15 13:29:24;;;;;;;2.05;1.27;;;;;13.20;93307.00;;;;7399305;19;20163;-72